Terminal Aerodrome Forecast
Issued by NWS

Current Version | Previous Version | Text Only | Print | Product List | Glossary On
Versions: 1 2 3 4 5 6 7 8 9 10 11 12 13 14 15 16
000
FTUS45 KTFX 231349 AAA
TAFGTF
TAF AMD
KGTF 231349Z 2314/2412 06007KT P6SM -SHRA SCT020 BKN045
      TEMPO 2314/2317 3SM RA BKN020
     FM232100 08013KT P6SM -SHRA OVC050
     FM240100 06010KT P6SM VCSH OVC050
     FM240400 VRB05KT P6SM SCT070 OVC100=

USA.gov is the U.S. government's official web portal to all federal, state and local government web resources and services.